sensor_id;sensor_type;location;lat;lon;timestamp;P1;durP1;ratioP1;P2;durP2;ratioP2
49376;SDS011;35253;34.688;33.040;2023-04-15T00:00:09;16.30;;;8.57;;
49376;SDS011;35253;34.688;33.040;2023-04-15T00:02:36;15.65;;;9.38;;
49376;SDS011;35253;34.688;33.040;2023-04-15T00:05:03;11.20;;;7.18;;
49376;SDS011;35253;34.688;33.040;2023-04-15T00:07:29;8.32;;;5.68;;
49376;SDS011;35253;34.688;33.040;2023-04-15T00:09:55;9.52;;;6.50;;
49376;SDS011;35253;34.688;33.040;2023-04-15T00:12:25;10.68;;;5.43;;
49376;SDS011;35253;34.688;33.040;2023-04-15T00:14:52;12.57;;;7.05;;
49376;SDS011;35253;34.688;33.040;2023-04-15T00:17:18;11.63;;;6.72;;
49376;SDS011;35253;34.688;33.040;2023-04-15T00:19:44;9.63;;;6.80;;
49376;SDS011;35253;34.688;33.040;2023-04-15T00:22:10;9.43;;;5.90;;
49376;SDS011;35253;34.688;33.040;2023-04-15T00:24:37;12.15;;;6.30;;
49376;SDS011;35253;34.688;33.040;2023-04-15T00:27:03;15.38;;;6.18;;
49376;SDS011;35253;34.688;33.040;2023-04-15T00:29:29;9.82;;;6.43;;
49376;SDS011;35253;34.688;33.040;2023-04-15T00:31:55;10.63;;;5.93;;
49376;SDS011;35253;34.688;33.040;2023-04-15T00:34:21;13.13;;;7.07;;
49376;SDS011;35253;34.688;33.040;2023-04-15T00:36:48;10.38;;;6.60;;
49376;SDS011;35253;34.688;33.040;2023-04-15T00:39:15;13.40;;;7.07;;
49376;SDS011;35253;34.688;33.040;2023-04-15T00:41:41;10.88;;;5.97;;
49376;SDS011;35253;34.688;33.040;2023-04-15T00:44:07;8.02;;;5.78;;
49376;SDS011;35253;34.688;33.040;2023-04-15T00:46:36;9.30;;;5.85;;
49376;SDS011;35253;34.688;33.040;2023-04-15T00:49:03;8.93;;;5.70;;
49376;SDS011;35253;34.688;33.040;2023-04-15T00:51:31;9.57;;;5.72;;
49376;SDS011;35253;34.688;33.040;2023-04-15T00:54:00;11.63;;;6.40;;
49376;SDS011;35253;34.688;33.040;2023-04-15T00:56:29;7.03;;;4.68;;
49376;SDS011;35253;34.688;33.040;2023-04-15T00:58:55;7.68;;;5.10;;
49376;SDS011;35253;34.688;33.040;2023-04-15T01:01:23;7.28;;;4.72;;
49376;SDS011;35253;34.688;33.040;2023-04-15T01:03:50;7.65;;;4.72;;
49376;SDS011;35253;34.688;33.040;2023-04-15T01:06:16;9.65;;;5.15;;
49376;SDS011;35253;34.688;33.040;2023-04-15T01:08:42;8.95;;;5.38;;
49376;SDS011;35253;34.688;33.040;2023-04-15T01:11:09;10.63;;;4.75;;
49376;SDS011;35253;34.688;33.040;2023-04-15T01:13:37;8.25;;;5.15;;
49376;SDS011;35253;34.688;33.040;2023-04-15T01:16:03;6.53;;;4.40;;
49376;SDS011;35253;34.688;33.040;2023-04-15T01:18:29;6.90;;;4.38;;
49376;SDS011;35253;34.688;33.040;2023-04-15T01:20:55;5.38;;;4.57;;
49376;SDS011;35253;34.688;33.040;2023-04-15T01:23:21;6.25;;;4.78;;
49376;SDS011;35253;34.688;33.040;2023-04-15T01:25:48;8.77;;;4.70;;
49376;SDS011;35253;34.688;33.040;2023-04-15T01:28:14;9.32;;;5.55;;
49376;SDS011;35253;34.688;33.040;2023-04-15T01:30:40;8.48;;;5.38;;
49376;SDS011;35253;34.688;33.040;2023-04-15T01:33:06;13.30;;;6.03;;
49376;SDS011;35253;34.688;33.040;2023-04-15T01:35:32;9.13;;;5.97;;
49376;SDS011;35253;34.688;33.040;2023-04-15T01:38:00;9.93;;;5.60;;
49376;SDS011;35253;34.688;33.040;2023-04-15T01:40:30;10.80;;;6.63;;
49376;SDS011;35253;34.688;33.040;2023-04-15T01:42:56;7.40;;;5.53;;
49376;SDS011;35253;34.688;33.040;2023-04-15T01:45:22;11.70;;;5.88;;
49376;SDS011;35253;34.688;33.040;2023-04-15T01:47:47;7.55;;;5.68;;
49376;SDS011;35253;34.688;33.040;2023-04-15T01:50:13;15.63;;;7.40;;
49376;SDS011;35253;34.688;33.040;2023-04-15T01:52:39;8.70;;;7.10;;
49376;SDS011;35253;34.688;33.040;2023-04-15T01:55:05;8.73;;;6.28;;
49376;SDS011;35253;34.688;33.040;2023-04-15T01:57:32;9.68;;;5.75;;
49376;SDS011;35253;34.688;33.040;2023-04-15T01:59:58;8.07;;;5.85;;
49376;SDS011;35253;34.688;33.040;2023-04-15T02:02:24;11.13;;;5.93;;
49376;SDS011;35253;34.688;33.040;2023-04-15T02:04:49;15.52;;;8.25;;
49376;SDS011;35253;34.688;33.040;2023-04-15T02:07:15;8.82;;;5.32;;
49376;SDS011;35253;34.688;33.040;2023-04-15T02:09:41;8.93;;;4.68;;
49376;SDS011;35253;34.688;33.040;2023-04-15T02:12:08;8.93;;;5.60;;
49376;SDS011;35253;34.688;33.040;2023-04-15T02:14:33;7.80;;;4.97;;
49376;SDS011;35253;34.688;33.040;2023-04-15T02:16:59;9.15;;;4.88;;
49376;SDS011;35253;34.688;33.040;2023-04-15T02:19:31;11.73;;;6.30;;
49376;SDS011;35253;34.688;33.040;2023-04-15T02:21:58;7.50;;;5.75;;
49376;SDS011;35253;34.688;33.040;2023-04-15T02:24:26;8.38;;;6.05;;
49376;SDS011;35253;34.688;33.040;2023-04-15T02:26:53;19.58;;;8.25;;
49376;SDS011;35253;34.688;33.040;2023-04-15T02:29:18;12.55;;;5.68;;
49376;SDS011;35253;34.688;33.040;2023-04-15T02:31:44;9.05;;;6.07;;
49376;SDS011;35253;34.688;33.040;2023-04-15T02:34:10;8.15;;;6.13;;
49376;SDS011;35253;34.688;33.040;2023-04-15T02:36:35;11.10;;;6.40;;
49376;SDS011;35253;34.688;33.040;2023-04-15T02:39:02;8.32;;;4.68;;
49376;SDS011;35253;34.688;33.040;2023-04-15T02:41:28;11.23;;;5.75;;
49376;SDS011;35253;34.688;33.040;2023-04-15T02:43:54;6.03;;;5.25;;
49376;SDS011;35253;34.688;33.040;2023-04-15T02:46:21;7.38;;;5.80;;
49376;SDS011;35253;34.688;33.040;2023-04-15T02:48:47;10.38;;;5.18;;
49376;SDS011;35253;34.688;33.040;2023-04-15T02:51:18;9.45;;;5.95;;
49376;SDS011;35253;34.688;33.040;2023-04-15T02:53:45;15.93;;;5.90;;
49376;SDS011;35253;34.688;33.040;2023-04-15T02:56:12;6.00;;;4.68;;
49376;SDS011;35253;34.688;33.040;2023-04-15T02:58:39;9.85;;;5.18;;
49376;SDS011;35253;34.688;33.040;2023-04-15T03:01:05;6.50;;;5.63;;
49376;SDS011;35253;34.688;33.040;2023-04-15T03:03:33;7.47;;;4.70;;
49376;SDS011;35253;34.688;33.040;2023-04-15T03:05:59;7.78;;;5.28;;
49376;SDS011;35253;34.688;33.040;2023-04-15T03:08:24;9.23;;;4.93;;
49376;SDS011;35253;34.688;33.040;2023-04-15T03:10:50;13.27;;;4.57;;
49376;SDS011;35253;34.688;33.040;2023-04-15T03:13:17;7.93;;;4.55;;
49376;SDS011;35253;34.688;33.040;2023-04-15T03:15:46;6.90;;;3.80;;
49376;SDS011;35253;34.688;33.040;2023-04-15T03:18:12;6.78;;;4.72;;
49376;SDS011;35253;34.688;33.040;2023-04-15T03:20:38;5.82;;;4.20;;
49376;SDS011;35253;34.688;33.040;2023-04-15T03:23:04;5.30;;;4.05;;
49376;SDS011;35253;34.688;33.040;2023-04-15T03:25:29;6.82;;;3.72;;
49376;SDS011;35253;34.688;33.040;2023-04-15T03:27:55;6.18;;;4.55;;
49376;SDS011;35253;34.688;33.040;2023-04-15T03:30:21;5.68;;;3.30;;
49376;SDS011;35253;34.688;33.040;2023-04-15T03:32:47;6.55;;;2.92;;
49376;SDS011;35253;34.688;33.040;2023-04-15T03:35:12;3.67;;;2.92;;
49376;SDS011;35253;34.688;33.040;2023-04-15T03:37:38;3.53;;;2.90;;
49376;SDS011;35253;34.688;33.040;2023-04-15T03:40:04;5.07;;;2.88;;
49376;SDS011;35253;34.688;33.040;2023-04-15T03:42:30;4.22;;;3.10;;
49376;SDS011;35253;34.688;33.040;2023-04-15T03:44:55;3.40;;;2.97;;
49376;SDS011;35253;34.688;33.040;2023-04-15T03:47:21;6.65;;;2.35;;
49376;SDS011;35253;34.688;33.040;2023-04-15T03:49:47;4.72;;;2.58;;
49376;SDS011;35253;34.688;33.040;2023-04-15T03:52:13;5.25;;;2.70;;
49376;SDS011;35253;34.688;33.040;2023-04-15T03:54:38;6.50;;;3.15;;
49376;SDS011;35253;34.688;33.040;2023-04-15T03:57:04;7.47;;;2.50;;
49376;SDS011;35253;34.688;33.040;2023-04-15T03:59:29;6.65;;;2.88;;
49376;SDS011;35253;34.688;33.040;2023-04-15T04:01:55;3.65;;;3.20;;
49376;SDS011;35253;34.688;33.040;2023-04-15T04:04:21;4.95;;;2.15;;
49376;SDS011;35253;34.688;33.040;2023-04-15T04:06:47;5.63;;;2.97;;
49376;SDS011;35253;34.688;33.040;2023-04-15T04:09:12;4.95;;;2.95;;
49376;SDS011;35253;34.688;33.040;2023-04-15T04:11:38;2.75;;;2.35;;
49376;SDS011;35253;34.688;33.040;2023-04-15T04:14:04;6.15;;;2.92;;
49376;SDS011;35253;34.688;33.040;2023-04-15T04:16:29;5.88;;;3.05;;
49376;SDS011;35253;34.688;33.040;2023-04-15T04:18:55;4.03;;;3.53;;
49376;SDS011;35253;34.688;33.040;2023-04-15T04:21:21;3.40;;;2.40;;
49376;SDS011;35253;34.688;33.040;2023-04-15T04:23:46;4.07;;;2.90;;
49376;SDS011;35253;34.688;33.040;2023-04-15T04:26:12;6.68;;;3.08;;
49376;SDS011;35253;34.688;33.040;2023-04-15T04:28:38;4.85;;;2.50;;
49376;SDS011;35253;34.688;33.040;2023-04-15T04:31:05;5.13;;;3.33;;
49376;SDS011;35253;34.688;33.040;2023-04-15T04:33:31;4.40;;;3.45;;
49376;SDS011;35253;34.688;33.040;2023-04-15T04:35:57;18.17;;;11.10;;
49376;SDS011;35253;34.688;33.040;2023-04-15T04:38:23;10.50;;;6.30;;
49376;SDS011;35253;34.688;33.040;2023-04-15T04:40:49;4.65;;;3.33;;
49376;SDS011;35253;34.688;33.040;2023-04-15T04:43:15;8.98;;;3.50;;
49376;SDS011;35253;34.688;33.040;2023-04-15T04:45:41;6.68;;;2.90;;
49376;SDS011;35253;34.688;33.040;2023-04-15T04:48:07;4.93;;;2.83;;
49376;SDS011;35253;34.688;33.040;2023-04-15T04:50:34;3.33;;;2.55;;
49376;SDS011;35253;34.688;33.040;2023-04-15T04:53:00;4.53;;;2.50;;
49376;SDS011;35253;34.688;33.040;2023-04-15T04:55:26;4.50;;;2.78;;
49376;SDS011;35253;34.688;33.040;2023-04-15T04:57:52;7.03;;;2.80;;
49376;SDS011;35253;34.688;33.040;2023-04-15T05:00:17;5.97;;;2.97;;
49376;SDS011;35253;34.688;33.040;2023-04-15T05:02:43;3.33;;;2.95;;
49376;SDS011;35253;34.688;33.040;2023-04-15T05:05:09;6.25;;;3.40;;
49376;SDS011;35253;34.688;33.040;2023-04-15T05:07:39;4.50;;;2.70;;
49376;SDS011;35253;34.688;33.040;2023-04-15T05:10:05;6.57;;;4.03;;
49376;SDS011;35253;34.688;33.040;2023-04-15T05:12:31;3.22;;;2.90;;
49376;SDS011;35253;34.688;33.040;2023-04-15T05:14:57;4.22;;;2.80;;
49376;SDS011;35253;34.688;33.040;2023-04-15T05:17:22;7.75;;;3.88;;
49376;SDS011;35253;34.688;33.040;2023-04-15T05:19:48;4.60;;;2.70;;
49376;SDS011;35253;34.688;33.040;2023-04-15T05:22:14;3.35;;;2.58;;
49376;SDS011;35253;34.688;33.040;2023-04-15T05:24:40;7.55;;;3.45;;
49376;SDS011;35253;34.688;33.040;2023-04-15T05:27:05;4.90;;;2.58;;
49376;SDS011;35253;34.688;33.040;2023-04-15T05:29:32;5.93;;;3.38;;
49376;SDS011;35253;34.688;33.040;2023-04-15T05:31:58;4.05;;;2.50;;
49376;SDS011;35253;34.688;33.040;2023-04-15T05:34:25;4.90;;;2.55;;
49376;SDS011;35253;34.688;33.040;2023-04-15T05:36:50;4.80;;;3.08;;
49376;SDS011;35253;34.688;33.040;2023-04-15T05:39:16;7.32;;;2.65;;
49376;SDS011;35253;34.688;33.040;2023-04-15T05:41:43;2.33;;;2.08;;
49376;SDS011;35253;34.688;33.040;2023-04-15T05:44:08;3.72;;;2.10;;
49376;SDS011;35253;34.688;33.040;2023-04-15T05:46:34;5.82;;;2.72;;
49376;SDS011;35253;34.688;33.040;2023-04-15T05:49:00;4.43;;;2.60;;
49376;SDS011;35253;34.688;33.040;2023-04-15T05:51:26;5.93;;;2.78;;
49376;SDS011;35253;34.688;33.040;2023-04-15T05:53:51;19.23;;;3.22;;
49376;SDS011;35253;34.688;33.040;2023-04-15T05:56:17;7.03;;;3.22;;
49376;SDS011;35253;34.688;33.040;2023-04-15T05:58:44;7.00;;;2.53;;
49376;SDS011;35253;34.688;33.040;2023-04-15T06:01:10;10.18;;;4.95;;
49376;SDS011;35253;34.688;33.040;2023-04-15T06:03:36;6.95;;;2.40;;
49376;SDS011;35253;34.688;33.040;2023-04-15T06:06:03;6.60;;;3.30;;
49376;SDS011;35253;34.688;33.040;2023-04-15T06:08:28;4.93;;;2.90;;
49376;SDS011;35253;34.688;33.040;2023-04-15T06:10:54;4.45;;;2.88;;
49376;SDS011;35253;34.688;33.040;2023-04-15T06:13:20;7.05;;;3.03;;
49376;SDS011;35253;34.688;33.040;2023-04-15T06:15:46;3.13;;;2.20;;
49376;SDS011;35253;34.688;33.040;2023-04-15T06:18:11;4.95;;;3.17;;
49376;SDS011;35253;34.688;33.040;2023-04-15T06:20:37;6.75;;;2.90;;
49376;SDS011;35253;34.688;33.040;2023-04-15T06:23:03;5.85;;;2.58;;
49376;SDS011;35253;34.688;33.040;2023-04-15T06:25:29;6.85;;;2.83;;
49376;SDS011;35253;34.688;33.040;2023-04-15T06:27:55;4.43;;;2.80;;
49376;SDS011;35253;34.688;33.040;2023-04-15T06:30:20;4.88;;;2.15;;
49376;SDS011;35253;34.688;33.040;2023-04-15T06:32:46;3.00;;;2.35;;
49376;SDS011;35253;34.688;33.040;2023-04-15T06:35:12;4.00;;;3.15;;
49376;SDS011;35253;34.688;33.040;2023-04-15T06:37:38;7.43;;;3.22;;
49376;SDS011;35253;34.688;33.040;2023-04-15T06:40:04;3.08;;;2.20;;
49376;SDS011;35253;34.688;33.040;2023-04-15T06:42:30;6.03;;;2.42;;
49376;SDS011;35253;34.688;33.040;2023-04-15T06:44:56;5.07;;;3.45;;
49376;SDS011;35253;34.688;33.040;2023-04-15T06:47:22;3.25;;;2.63;;
49376;SDS011;35253;34.688;33.040;2023-04-15T06:49:48;5.40;;;2.28;;
49376;SDS011;35253;34.688;33.040;2023-04-15T06:52:13;5.82;;;2.88;;
49376;SDS011;35253;34.688;33.040;2023-04-15T06:54:41;4.72;;;2.17;;
49376;SDS011;35253;34.688;33.040;2023-04-15T06:57:07;2.40;;;1.90;;
49376;SDS011;35253;34.688;33.040;2023-04-15T06:59:33;3.83;;;2.40;;
49376;SDS011;35253;34.688;33.040;2023-04-15T07:01:59;2.47;;;1.95;;
49376;SDS011;35253;34.688;33.040;2023-04-15T07:04:25;3.53;;;2.15;;
49376;SDS011;35253;34.688;33.040;2023-04-15T07:06:52;2.17;;;1.98;;
49376;SDS011;35253;34.688;33.040;2023-04-15T07:09:20;3.80;;;1.92;;
49376;SDS011;35253;34.688;33.040;2023-04-15T07:11:46;4.70;;;2.50;;
49376;SDS011;35253;34.688;33.040;2023-04-15T07:14:12;6.93;;;2.15;;
49376;SDS011;35253;34.688;33.040;2023-04-15T07:16:38;3.55;;;2.30;;
49376;SDS011;35253;34.688;33.040;2023-04-15T07:19:04;2.58;;;2.33;;
49376;SDS011;35253;34.688;33.040;2023-04-15T07:21:30;4.25;;;2.05;;
49376;SDS011;35253;34.688;33.040;2023-04-15T07:23:56;3.78;;;1.70;;
49376;SDS011;35253;34.688;33.040;2023-04-15T07:26:22;3.00;;;1.77;;
49376;SDS011;35253;34.688;33.040;2023-04-15T07:28:48;3.95;;;2.08;;
49376;SDS011;35253;34.688;33.040;2023-04-15T07:31:14;3.92;;;2.35;;
49376;SDS011;35253;34.688;33.040;2023-04-15T07:33:41;3.83;;;3.30;;
49376;SDS011;35253;34.688;33.040;2023-04-15T07:36:07;2.90;;;1.83;;
49376;SDS011;35253;34.688;33.040;2023-04-15T07:38:33;4.00;;;2.63;;
49376;SDS011;35253;34.688;33.040;2023-04-15T07:40:59;4.15;;;2.60;;
49376;SDS011;35253;34.688;33.040;2023-04-15T07:43:24;9.15;;;3.08;;
49376;SDS011;35253;34.688;33.040;2023-04-15T07:45:50;5.35;;;2.70;;
49376;SDS011;35253;34.688;33.040;2023-04-15T07:48:16;5.32;;;3.17;;
49376;SDS011;35253;34.688;33.040;2023-04-15T07:50:41;5.78;;;3.17;;
49376;SDS011;35253;34.688;33.040;2023-04-15T07:53:07;5.50;;;3.40;;
49376;SDS011;35253;34.688;33.040;2023-04-15T07:55:33;5.30;;;2.92;;
49376;SDS011;35253;34.688;33.040;2023-04-15T07:57:59;5.85;;;4.07;;
49376;SDS011;35253;34.688;33.040;2023-04-15T08:00:24;7.22;;;3.20;;
49376;SDS011;35253;34.688;33.040;2023-04-15T08:02:51;5.07;;;2.83;;
49376;SDS011;35253;34.688;33.040;2023-04-15T08:05:17;7.47;;;3.60;;
49376;SDS011;35253;34.688;33.040;2023-04-15T08:07:43;7.85;;;3.58;;
49376;SDS011;35253;34.688;33.040;2023-04-15T08:10:10;4.82;;;2.90;;
49376;SDS011;35253;34.688;33.040;2023-04-15T08:12:36;7.40;;;3.72;;
49376;SDS011;35253;34.688;33.040;2023-04-15T08:15:02;7.93;;;3.58;;
49376;SDS011;35253;34.688;33.040;2023-04-15T08:17:28;7.65;;;3.58;;
49376;SDS011;35253;34.688;33.040;2023-04-15T08:19:54;9.20;;;3.85;;
49376;SDS011;35253;34.688;33.040;2023-04-15T08:22:25;8.63;;;4.97;;
49376;SDS011;35253;34.688;33.040;2023-04-15T08:24:51;10.02;;;3.70;;
49376;SDS011;35253;34.688;33.040;2023-04-15T08:27:18;9.82;;;4.65;;
49376;SDS011;35253;34.688;33.040;2023-04-15T08:29:44;7.30;;;4.05;;
49376;SDS011;35253;34.688;33.040;2023-04-15T08:32:09;9.68;;;5.45;;
49376;SDS011;35253;34.688;33.040;2023-04-15T08:34:35;11.13;;;5.07;;
49376;SDS011;35253;34.688;33.040;2023-04-15T08:37:01;8.52;;;4.40;;
49376;SDS011;35253;34.688;33.040;2023-04-15T08:39:27;7.35;;;3.75;;
49376;SDS011;35253;34.688;33.040;2023-04-15T08:42:02;8.95;;;4.43;;
49376;SDS011;35253;34.688;33.040;2023-04-15T08:44:34;11.85;;;4.22;;
49376;SDS011;35253;34.688;33.040;2023-04-15T08:47:03;9.90;;;4.50;;
49376;SDS011;35253;34.688;33.040;2023-04-15T08:49:33;7.40;;;3.97;;
49376;SDS011;35253;34.688;33.040;2023-04-15T08:52:03;7.50;;;4.28;;
49376;SDS011;35253;34.688;33.040;2023-04-15T08:54:30;10.05;;;4.82;;
49376;SDS011;35253;34.688;33.040;2023-04-15T08:56:57;6.13;;;3.78;;
49376;SDS011;35253;34.688;33.040;2023-04-15T08:59:23;8.48;;;3.85;;
49376;SDS011;35253;34.688;33.040;2023-04-15T09:01:49;9.88;;;3.72;;
49376;SDS011;35253;34.688;33.040;2023-04-15T09:04:15;9.70;;;4.38;;
49376;SDS011;35253;34.688;33.040;2023-04-15T09:06:41;12.80;;;4.63;;
49376;SDS011;35253;34.688;33.040;2023-04-15T09:09:07;13.50;;;6.05;;
49376;SDS011;35253;34.688;33.040;2023-04-15T09:11:33;11.52;;;5.07;;
49376;SDS011;35253;34.688;33.040;2023-04-15T09:13:59;5.88;;;4.07;;
49376;SDS011;35253;34.688;33.040;2023-04-15T09:16:24;7.50;;;3.90;;
49376;SDS011;35253;34.688;33.040;2023-04-15T09:18:50;12.63;;;5.63;;
49376;SDS011;35253;34.688;33.040;2023-04-15T09:21:16;9.50;;;5.45;;
49376;SDS011;35253;34.688;33.040;2023-04-15T09:23:59;6.93;;;4.57;;
49376;SDS011;35253;34.688;33.040;2023-04-15T09:26:32;10.50;;;4.07;;
49376;SDS011;35253;34.688;33.040;2023-04-15T09:29:05;13.52;;;3.85;;
49376;SDS011;35253;34.688;33.040;2023-04-15T09:31:33;4.45;;;3.50;;
49376;SDS011;35253;34.688;33.040;2023-04-15T09:34:00;13.35;;;4.65;;
49376;SDS011;35253;34.688;33.040;2023-04-15T09:36:27;8.13;;;3.95;;
49376;SDS011;35253;34.688;33.040;2023-04-15T09:38:56;8.63;;;3.70;;
49376;SDS011;35253;34.688;33.040;2023-04-15T09:41:23;9.73;;;4.88;;
49376;SDS011;35253;34.688;33.040;2023-04-15T09:43:50;9.48;;;3.88;;
49376;SDS011;35253;34.688;33.040;2023-04-15T09:46:16;11.18;;;4.00;;
49376;SDS011;35253;34.688;33.040;2023-04-15T09:48:41;9.23;;;4.72;;
49376;SDS011;35253;34.688;33.040;2023-04-15T09:51:07;10.73;;;4.60;;
49376;SDS011;35253;34.688;33.040;2023-04-15T09:53:34;8.23;;;4.32;;
49376;SDS011;35253;34.688;33.040;2023-04-15T09:56:01;8.52;;;3.97;;
49376;SDS011;35253;34.688;33.040;2023-04-15T10:00:54;7.38;;;4.30;;
49376;SDS011;35253;34.688;33.040;2023-04-15T10:03:22;5.28;;;3.53;;
49376;SDS011;35253;34.688;33.040;2023-04-15T10:05:51;6.43;;;4.45;;
49376;SDS011;35253;34.688;33.040;2023-04-15T10:08:19;12.88;;;4.38;;
49376;SDS011;35253;34.688;33.040;2023-04-15T10:10:52;10.15;;;4.78;;
49376;SDS011;35253;34.688;33.040;2023-04-15T10:13:18;9.90;;;5.75;;
49376;SDS011;35253;34.688;33.040;2023-04-15T10:16:05;7.50;;;4.55;;
49376;SDS011;35253;34.688;33.040;2023-04-15T10:18:34;9.68;;;4.32;;
49376;SDS011;35253;34.688;33.040;2023-04-15T10:21:05;11.50;;;5.28;;
49376;SDS011;35253;34.688;33.040;2023-04-15T10:23:32;8.95;;;3.78;;
49376;SDS011;35253;34.688;33.040;2023-04-15T10:25:59;9.55;;;4.43;;
49376;SDS011;35253;34.688;33.040;2023-04-15T10:28:25;7.18;;;4.85;;
49376;SDS011;35253;34.688;33.040;2023-04-15T10:30:52;10.07;;;3.70;;
49376;SDS011;35253;34.688;33.040;2023-04-15T10:33:19;4.88;;;3.45;;
49376;SDS011;35253;34.688;33.040;2023-04-15T10:35:49;9.15;;;3.75;;
49376;SDS011;35253;34.688;33.040;2023-04-15T10:46:39;3.97;;;3.45;;
49376;SDS011;35253;34.688;33.040;2023-04-15T10:51:36;8.05;;;3.45;;
49376;SDS011;35253;34.688;33.040;2023-04-15T10:54:08;7.78;;;3.08;;
49376;SDS011;35253;34.688;33.040;2023-04-15T10:56:40;7.82;;;3.35;;
49376;SDS011;35253;34.688;33.040;2023-04-15T10:59:08;7.60;;;3.63;;
49376;SDS011;35253;34.688;33.040;2023-04-15T11:04:56;6.18;;;2.70;;
49376;SDS011;35253;34.688;33.040;2023-04-15T11:07:32;8.73;;;4.32;;
49376;SDS011;35253;34.688;33.040;2023-04-15T11:09:59;6.22;;;2.58;;
49376;SDS011;35253;34.688;33.040;2023-04-15T11:12:35;6.10;;;3.00;;
49376;SDS011;35253;34.688;33.040;2023-04-15T11:20:34;4.68;;;3.03;;
49376;SDS011;35253;34.688;33.040;2023-04-15T11:23:00;12.38;;;3.78;;
49376;SDS011;35253;34.688;33.040;2023-04-15T11:25:30;8.73;;;3.55;;
49376;SDS011;35253;34.688;33.040;2023-04-15T11:27:58;9.60;;;3.20;;
49376;SDS011;35253;34.688;33.040;2023-04-15T11:30:25;11.95;;;4.10;;
49376;SDS011;35253;34.688;33.040;2023-04-15T11:32:59;12.95;;;4.88;;
49376;SDS011;35253;34.688;33.040;2023-04-15T11:35:27;9.35;;;4.05;;
49376;SDS011;35253;34.688;33.040;2023-04-15T11:37:53;3.85;;;2.63;;
49376;SDS011;35253;34.688;33.040;2023-04-15T11:40:23;8.23;;;5.07;;
49376;SDS011;35253;34.688;33.040;2023-04-15T11:43:03;16.73;;;9.30;;
49376;SDS011;35253;34.688;33.040;2023-04-15T11:45:29;8.20;;;3.53;;
49376;SDS011;35253;34.688;33.040;2023-04-15T11:48:03;6.82;;;3.60;;
49376;SDS011;35253;34.688;33.040;2023-04-15T11:50:31;6.97;;;3.33;;
49376;SDS011;35253;34.688;33.040;2023-04-15T11:52:57;6.50;;;3.03;;
49376;SDS011;35253;34.688;33.040;2023-04-15T11:55:25;8.48;;;3.03;;
49376;SDS011;35253;34.688;33.040;2023-04-15T12:00:41;7.30;;;3.58;;
49376;SDS011;35253;34.688;33.040;2023-04-15T12:03:16;4.13;;;2.95;;
49376;SDS011;35253;34.688;33.040;2023-04-15T12:08:58;5.97;;;3.35;;
49376;SDS011;35253;34.688;33.040;2023-04-15T12:11:35;6.00;;;2.60;;
49376;SDS011;35253;34.688;33.040;2023-04-15T12:16:36;9.65;;;4.93;;
49376;SDS011;35253;34.688;33.040;2023-04-15T12:19:06;8.70;;;4.43;;
49376;SDS011;35253;34.688;33.040;2023-04-15T12:24:03;7.13;;;3.45;;
49376;SDS011;35253;34.688;33.040;2023-04-15T12:26:33;6.43;;;3.58;;
49376;SDS011;35253;34.688;33.040;2023-04-15T12:29:13;7.93;;;3.85;;
49376;SDS011;35253;34.688;33.040;2023-04-15T12:31:49;9.52;;;4.18;;
49376;SDS011;35253;34.688;33.040;2023-04-15T12:34:17;7.25;;;3.50;;
49376;SDS011;35253;34.688;33.040;2023-04-15T12:36:53;9.63;;;3.78;;
49376;SDS011;35253;34.688;33.040;2023-04-15T12:39:23;6.60;;;3.80;;
49376;SDS011;35253;34.688;33.040;2023-04-15T12:41:50;8.50;;;5.13;;
49376;SDS011;35253;34.688;33.040;2023-04-15T12:44:16;11.25;;;4.32;;
49376;SDS011;35253;34.688;33.040;2023-04-15T12:46:42;6.18;;;4.07;;
49376;SDS011;35253;34.688;33.040;2023-04-15T12:49:10;8.98;;;3.78;;
49376;SDS011;35253;34.688;33.040;2023-04-15T12:51:36;7.78;;;4.13;;
49376;SDS011;35253;34.688;33.040;2023-04-15T12:54:01;12.95;;;5.28;;
49376;SDS011;35253;34.688;33.040;2023-04-15T12:56:27;10.18;;;4.18;;
49376;SDS011;35253;34.688;33.040;2023-04-15T12:58:53;8.60;;;5.50;;
49376;SDS011;35253;34.688;33.040;2023-04-15T13:01:19;8.18;;;4.05;;
49376;SDS011;35253;34.688;33.040;2023-04-15T13:03:45;9.48;;;5.45;;
49376;SDS011;35253;34.688;33.040;2023-04-15T13:06:12;11.65;;;5.47;;
49376;SDS011;35253;34.688;33.040;2023-04-15T13:08:37;12.85;;;4.40;;
49376;SDS011;35253;34.688;33.040;2023-04-15T13:11:03;7.22;;;4.07;;
49376;SDS011;35253;34.688;33.040;2023-04-15T13:13:29;9.48;;;4.38;;
49376;SDS011;35253;34.688;33.040;2023-04-15T13:15:56;5.82;;;4.45;;
49376;SDS011;35253;34.688;33.040;2023-04-15T13:18:22;6.53;;;3.60;;
49376;SDS011;35253;34.688;33.040;2023-04-15T13:20:48;10.95;;;4.10;;
49376;SDS011;35253;34.688;33.040;2023-04-15T13:23:15;7.07;;;4.07;;
49376;SDS011;35253;34.688;33.040;2023-04-15T13:25:41;10.57;;;4.95;;
49376;SDS011;35253;34.688;33.040;2023-04-15T13:28:07;5.72;;;4.13;;
49376;SDS011;35253;34.688;33.040;2023-04-15T13:30:36;6.22;;;4.40;;
49376;SDS011;35253;34.688;33.040;2023-04-15T13:33:02;6.80;;;4.13;;
49376;SDS011;35253;34.688;33.040;2023-04-15T13:35:28;14.55;;;5.80;;
49376;SDS011;35253;34.688;33.040;2023-04-15T13:37:54;9.93;;;5.40;;
49376;SDS011;35253;34.688;33.040;2023-04-15T13:40:20;10.32;;;5.97;;
49376;SDS011;35253;34.688;33.040;2023-04-15T13:42:46;11.75;;;5.18;;
49376;SDS011;35253;34.688;33.040;2023-04-15T13:45:12;9.45;;;4.97;;
49376;SDS011;35253;34.688;33.040;2023-04-15T13:47:38;9.50;;;6.18;;
49376;SDS011;35253;34.688;33.040;2023-04-15T13:50:04;14.02;;;6.18;;
49376;SDS011;35253;34.688;33.040;2023-04-15T13:52:31;11.27;;;7.82;;
49376;SDS011;35253;34.688;33.040;2023-04-15T13:54:56;13.35;;;5.85;;
49376;SDS011;35253;34.688;33.040;2023-04-15T13:57:22;13.57;;;6.75;;
49376;SDS011;35253;34.688;33.040;2023-04-15T13:59:48;9.82;;;6.30;;
49376;SDS011;35253;34.688;33.040;2023-04-15T14:02:14;10.57;;;6.40;;
49376;SDS011;35253;34.688;33.040;2023-04-15T14:04:39;10.25;;;4.95;;
49376;SDS011;35253;34.688;33.040;2023-04-15T14:07:05;12.88;;;4.80;;
49376;SDS011;35253;34.688;33.040;2023-04-15T14:09:31;11.75;;;6.03;;
49376;SDS011;35253;34.688;33.040;2023-04-15T14:11:56;9.13;;;6.55;;
49376;SDS011;35253;34.688;33.040;2023-04-15T14:14:24;7.25;;;4.97;;
49376;SDS011;35253;34.688;33.040;2023-04-15T14:16:49;14.07;;;8.05;;
49376;SDS011;35253;34.688;33.040;2023-04-15T14:19:15;14.57;;;6.43;;
49376;SDS011;35253;34.688;33.040;2023-04-15T14:21:41;9.73;;;6.10;;
49376;SDS011;35253;34.688;33.040;2023-04-15T14:24:06;8.85;;;5.55;;
49376;SDS011;35253;34.688;33.040;2023-04-15T14:26:32;12.48;;;6.70;;
49376;SDS011;35253;34.688;33.040;2023-04-15T14:28:58;9.85;;;6.35;;
49376;SDS011;35253;34.688;33.040;2023-04-15T14:31:24;10.38;;;5.68;;
49376;SDS011;35253;34.688;33.040;2023-04-15T14:33:50;10.57;;;5.80;;
49376;SDS011;35253;34.688;33.040;2023-04-15T14:36:16;10.27;;;5.50;;
49376;SDS011;35253;34.688;33.040;2023-04-15T14:38:42;12.68;;;6.47;;
49376;SDS011;35253;34.688;33.040;2023-04-15T14:41:07;10.75;;;5.10;;
49376;SDS011;35253;34.688;33.040;2023-04-15T14:43:34;11.63;;;6.35;;
49376;SDS011;35253;34.688;33.040;2023-04-15T14:46:00;8.02;;;4.80;;
49376;SDS011;35253;34.688;33.040;2023-04-15T14:48:28;9.35;;;4.55;;
49376;SDS011;35253;34.688;33.040;2023-04-15T14:50:55;14.63;;;7.65;;
49376;SDS011;35253;34.688;33.040;2023-04-15T14:53:21;11.90;;;5.10;;
49376;SDS011;35253;34.688;33.040;2023-04-15T14:55:47;7.00;;;4.93;;
49376;SDS011;35253;34.688;33.040;2023-04-15T14:58:12;14.80;;;6.20;;
49376;SDS011;35253;34.688;33.040;2023-04-15T15:00:38;21.10;;;6.43;;